Wetterdaten: Woche 16.12.13 - 22.12.13 (KW51)
Datum Zeit Temperatur Luftfeuchte Luftdruck Niederschlag Windrichtung Sonnenschein Solar Wind
16.12.2013 00:00 -2,1 C 97 % 1034,0 hPa 0,0 l/m N 0,00 h 0 W/m 0,1 km/h (0 Bft)
16.12.2013 01:00 -2,4 C 97 % 1033,9 hPa 0,0 l/m N 0,00 h 0 W/m 0,1 km/h (0 Bft)
16.12.2013 02:00 -2,4 C 98 % 1033,9 hPa 0,0 l/m N 0,00 h 0 W/m 0,4 km/h (0 Bft)
16.12.2013 03:00 -2,5 C 98 % 1033,8 hPa 0,0 l/m N 0,00 h 0 W/m 1,5 km/h (1 Bft)
16.12.2013 04:00 -3,1 C 98 % 1033,6 hPa 0,0 l/m N 0,00 h 0 W/m 1,3 km/h (1 Bft)
16.12.2013 05:00 -3,5 C 98 % 1033,5 hPa 0,0 l/m S-SW 0,00 h 0 W/m 2,0 km/h (1 Bft)
16.12.2013 06:00 -4,0 C 98 % 1033,6 hPa 0,0 l/m N 0,00 h 0 W/m 0,1 km/h (0 Bft)
16.12.2013 07:00 -4,4 C 98 % 1033,7 hPa 0,0 l/m N 0,00 h 0 W/m 0,3 km/h (0 Bft)
16.12.2013 08:00 -4,6 C 98 % 1033,8 hPa 0,0 l/m N 0,00 h 18 W/m 0,0 km/h (0 Bft)
16.12.2013 09:00 -4,5 C 98 % 1034,0 hPa 0,0 l/m N 0,08 h 40 W/m 0,5 km/h (0 Bft)
16.12.2013 10:00 -3,4 C 98 % 1034,0 hPa 0,0 l/m N 0,67 h 154 W/m 0,0 km/h (0 Bft)
16.12.2013 11:00 -0,1 C 99 % 1033,4 hPa 0,0 l/m N 1,00 h 278 W/m 1,5 km/h (1 Bft)
16.12.2013 12:00 3,7 C 91 % 1032,6 hPa 0,0 l/m S-SW 1,00 h 317 W/m 3,3 km/h (1 Bft)
16.12.2013 13:00 5,6 C 82 % 1031,9 hPa 0,0 l/m S-SW 1,00 h 289 W/m 2,7 km/h (1 Bft)
16.12.2013 14:00 5,4 C 83 % 1031,5 hPa 0,0 l/m S-SW 1,00 h 202 W/m 5,6 km/h (1 Bft)
16.12.2013 15:00 4,1 C 87 % 1031,3 hPa 0,0 l/m S-SW 0,75 h 80 W/m 3,1 km/h (1 Bft)
16.12.2013 16:00 2,1 C 92 % 1031,4 hPa 0,0 l/m N 0,08 h 12 W/m 0,3 km/h (0 Bft)
16.12.2013 17:00 0,8 C 92 % 1031,5 hPa 0,0 l/m N 0,00 h 0 W/m 1,9 km/h (1 Bft)
16.12.2013 18:00 -0,6 C 93 % 1031,6 hPa 0,0 l/m S-SW 0,00 h 0 W/m 1,5 km/h (1 Bft)
16.12.2013 19:00 -1,2 C 94 % 1031,8 hPa 0,0 l/m N 0,00 h 0 W/m 0,0 km/h (0 Bft)
16.12.2013 20:00 -1,7 C 94 % 1031,9 hPa 0,0 l/m N 0,00 h 0 W/m 0,3 km/h (0 Bft)
16.12.2013 21:00 -2,2 C 94 % 1031,7 hPa 0,0 l/m N 0,00 h 0 W/m 0,0 km/h (0 Bft)
16.12.2013 22:00 -2,6 C 95 % 1031,7 hPa 0,0 l/m N 0,00 h 0 W/m 0,1 km/h (0 Bft)
16.12.2013 23:00 -3,1 C 95 % 1031,5 hPa 0,0 l/m N 0,00 h 0 W/m 1,2 km/h (1 Bft)
17.12.2013 00:00 -3,7 C 95 % 1031,2 hPa 0,0 l/m N 0,00 h 0 W/m 0,3 km/h (0 Bft)
17.12.2013 01:00 -4,1 C 95 % 1031,1 hPa 0,0 l/m N 0,00 h 0 W/m 0,9 km/h (0 Bft)
17.12.2013 02:00 -4,6 C 95 % 1031,0 hPa 0,0 l/m N 0,00 h 0 W/m 0,4 km/h (0 Bft)
17.12.2013 03:00 -5,2 C 95 % 1030,9 hPa 0,0 l/m N 0,00 h 0 W/m 0,1 km/h (0 Bft)
17.12.2013 04:00 -5,5 C 95 % 1030,5 hPa 0,0 l/m N 0,00 h 0 W/m 0,0 km/h (0 Bft)
17.12.2013 05:00 -5,8 C 95 % 1030,3 hPa 0,0 l/m N 0,00 h 0 W/m 0,0 km/h (0 Bft)
17.12.2013 06:00 -5,9 C 95 % 1030,2 hPa 0,0 l/m N 0,00 h 0 W/m 0,0 km/h (0 Bft)
17.12.2013 07:00 -6,0 C 95 % 1030,3 hPa 0,0 l/m N 0,00 h 0 W/m 0,0 km/h (0 Bft)
17.12.2013 08:00 -6,0 C 95 % 1030,5 hPa 0,0 l/m N 0,00 h 10 W/m 0,0 km/h (0 Bft)
17.12.2013 09:00 -5,2 C 96 % 1030,9 hPa 0,0 l/m N 0,08 h 35 W/m 0,3 km/h (0 Bft)
17.12.2013 10:00 -3,6 C 97 % 1031,1 hPa 0,0 l/m S-SW 0,67 h 149 W/m 4,9 km/h (1 Bft)
17.12.2013 11:00 -0,6 C 96 % 1030,7 hPa 0,0 l/m S-SW 1,00 h 270 W/m 7,6 km/h (2 Bft)
17.12.2013 12:00 1,7 C 88 % 1029,8 hPa 0,0 l/m S-SW 1,00 h 313 W/m 9,0 km/h (2 Bft)
17.12.2013 13:00 3,3 C 81 % 1028,9 hPa 0,0 l/m S-SW 1,00 h 285 W/m 6,8 km/h (2 Bft)
17.12.2013 14:00 4,3 C 79 % 1028,2 hPa 0,0 l/m S-SW 1,00 h 206 W/m 5,2 km/h (1 Bft)
17.12.2013 15:00 3,5 C 80 % 1028,1 hPa 0,0 l/m S-SW 0,75 h 78 W/m 5,5 km/h (1 Bft)
17.12.2013 16:00 1,8 C 84 % 1028,2 hPa 0,0 l/m N 0,08 h 10 W/m 0,8 km/h (0 Bft)
17.12.2013 17:00 0,3 C 86 % 1028,3 hPa 0,0 l/m N 0,00 h 0 W/m 0,8 km/h (0 Bft)
17.12.2013 18:00 -0,9 C 90 % 1028,5 hPa 0,0 l/m N 0,00 h 0 W/m 0,0 km/h (0 Bft)
17.12.2013 19:00 -1,8 C 91 % 1028,8 hPa 0,0 l/m N 0,00 h 0 W/m 0,3 km/h (0 Bft)
17.12.2013 20:00 -2,5 C 92 % 1028,7 hPa 0,0 l/m N 0,00 h 0 W/m 1,1 km/h (0 Bft)
17.12.2013 21:00 -3,5 C 93 % 1028,1 hPa 0,0 l/m N 0,00 h 0 W/m 0,4 km/h (0 Bft)
17.12.2013 22:00 -4,1 C 93 % 1027,9 hPa 0,0 l/m N 0,00 h 0 W/m 0,0 km/h (0 Bft)
17.12.2013 23:00 -4,4 C 93 % 1027,9 hPa 0,0 l/m N 0,00 h 0 W/m 0,3 km/h (0 Bft)
18.12.2013 00:00 -4,7 C 94 % 1027,6 hPa 0,0 l/m N 0,00 h 0 W/m 0,0 km/h (0 Bft)
18.12.2013 01:00 -5,1 C 93 % 1027,5 hPa 0,0 l/m N 0,00 h 0 W/m 0,1 km/h (0 Bft)
18.12.2013 02:00 -5,4 C 94 % 1027,4 hPa 0,0 l/m N 0,00 h 0 W/m 0,0 km/h (0 Bft)
18.12.2013 03:00 -5,7 C 94 % 1027,4 hPa 0,0 l/m N 0,00 h 0 W/m 0,5 km/h (0 Bft)
18.12.2013 04:00 -5,5 C 94 % 1027,4 hPa 0,0 l/m S-SW 0,00 h 0 W/m 4,9 km/h (1 Bft)
18.12.2013 05:00 -5,0 C 96 % 1027,4 hPa 0,0 l/m S-SW 0,00 h 0 W/m 6,8 km/h (2 Bft)
18.12.2013 06:00 -4,0 C 97 % 1027,7 hPa 0,0 l/m S-SW 0,00 h 0 W/m 6,8 km/h (2 Bft)
18.12.2013 07:00 -3,0 C 97 % 1027,7 hPa 0,0 l/m S-SW 0,00 h 0 W/m 7,4 km/h (2 Bft)
18.12.2013 08:00 -2,4 C 97 % 1027,7 hPa 0,0 l/m N 0,00 h 9 W/m 2,1 km/h (1 Bft)
18.12.2013 09:00 -1,8 C 98 % 1027,4 hPa 0,0 l/m N 0,00 h 27 W/m 1,3 km/h (1 Bft)
18.12.2013 10:00 -1,2 C 98 % 1027,0 hPa 0,0 l/m N 0,00 h 49 W/m 0,4 km/h (0 Bft)
18.12.2013 11:00 -0,5 C 98 % 1026,5 hPa 0,0 l/m S-SW 0,00 h 85 W/m 1,2 km/h (1 Bft)
18.12.2013 12:00 0,2 C 98 % 1025,8 hPa 0,0 l/m S-SW 0,00 h 73 W/m 2,3 km/h (1 Bft)
18.12.2013 13:00 1,0 C 98 % 1024,8 hPa 0,0 l/m S-SW 0,17 h 105 W/m 3,5 km/h (1 Bft)
18.12.2013 14:00 2,6 C 92 % 1023,9 hPa 0,0 l/m S-SW 0,67 h 187 W/m 3,5 km/h (1 Bft)
18.12.2013 15:00 3,1 C 88 % 1023,6 hPa 0,0 l/m S-SW 0,33 h 61 W/m 5,2 km/h (1 Bft)
18.12.2013 16:00 2,0 C 89 % 1023,3 hPa 0,0 l/m N 0,00 h 10 W/m 0,4 km/h (0 Bft)
18.12.2013 17:00 0,4 C 89 % 1022,9 hPa 0,0 l/m N 0,00 h 0 W/m 0,0 km/h (0 Bft)
18.12.2013 18:00 -0,7 C 91 % 1022,4 hPa 0,0 l/m N 0,00 h 0 W/m 0,0 km/h (0 Bft)
18.12.2013 19:00 -1,2 C 93 % 1021,7 hPa 0,0 l/m N 0,00 h 0 W/m 0,0 km/h (0 Bft)
18.12.2013 20:00 -1,5 C 93 % 1021,2 hPa 0,0 l/m S-SW 0,00 h 0 W/m 0,5 km/h (0 Bft)
18.12.2013 21:00 -1,7 C 94 % 1020,2 hPa 0,0 l/m N 0,00 h 0 W/m 0,3 km/h (0 Bft)
18.12.2013 22:00 -2,2 C 95 % 1019,5 hPa 0,0 l/m N 0,00 h 0 W/m 0,3 km/h (0 Bft)
18.12.2013 23:00 -2,8 C 95 % 1018,5 hPa 0,0 l/m N 0,00 h 0 W/m 0,3 km/h (0 Bft)
19.12.2013 00:00 -3,2 C 95 % 1017,9 hPa 0,0 l/m N 0,00 h 0 W/m 0,3 km/h (0 Bft)
19.12.2013 01:00 -3,5 C 95 % 1016,8 hPa 0,0 l/m N 0,00 h 0 W/m 0,1 km/h (0 Bft)
19.12.2013 02:00 -3,8 C 95 % 1015,7 hPa 0,0 l/m N 0,00 h 0 W/m 0,5 km/h (0 Bft)
19.12.2013 03:00 -3,6 C 96 % 1014,9 hPa 0,0 l/m S-SW 0,00 h 0 W/m 1,1 km/h (0 Bft)
19.12.2013 04:00 -3,4 C 96 % 1013,8 hPa 0,0 l/m N 0,00 h 0 W/m 1,1 km/h (0 Bft)
19.12.2013 05:00 -3,2 C 96 % 1013,6 hPa 0,0 l/m N 0,00 h 0 W/m 0,4 km/h (0 Bft)
19.12.2013 06:00 -3,1 C 97 % 1013,5 hPa 0,0 l/m N 0,00 h 0 W/m 0,8 km/h (0 Bft)
19.12.2013 07:00 -3,0 C 97 % 1013,9 hPa 0,0 l/m N 0,00 h 0 W/m 0,5 km/h (0 Bft)
19.12.2013 08:00 -2,8 C 97 % 1014,0 hPa 0,0 l/m N 0,00 h 8 W/m 2,0 km/h (1 Bft)
19.12.2013 09:00 -2,3 C 97 % 1014,4 hPa 0,0 l/m S-SW 0,00 h 22 W/m 0,9 km/h (0 Bft)
19.12.2013 10:00 -1,3 C 98 % 1015,1 hPa 0,0 l/m S-SW 0,00 h 44 W/m 2,3 km/h (1 Bft)
19.12.2013 11:00 2,8 C 97 % 1014,9 hPa 0,0 l/m W-SW 0,00 h 41 W/m 16,6 km/h (3 Bft)
19.12.2013 12:00 2,6 C 91 % 1015,0 hPa 0,0 l/m S-SW 0,00 h 57 W/m 10,5 km/h (2 Bft)
19.12.2013 13:00 2,5 C 94 % 1014,4 hPa 0,0 l/m S 0,00 h 56 W/m 9,4 km/h (2 Bft)
19.12.2013 14:00 3,2 C 95 % 1014,1 hPa 0,0 l/m S-SW 0,00 h 69 W/m 11,7 km/h (2 Bft)
19.12.2013 15:00 3,6 C 95 % 1014,1 hPa 0,0 l/m S-SW 0,00 h 31 W/m 8,4 km/h (2 Bft)
19.12.2013 16:00 3,2 C 95 % 1014,0 hPa 0,0 l/m S-SW 0,00 h 8 W/m 3,9 km/h (1 Bft)
19.12.2013 17:00 2,9 C 95 % 1013,7 hPa 0,0 l/m N 0,00 h 0 W/m 1,1 km/h (0 Bft)
19.12.2013 18:00 2,4 C 95 % 1013,8 hPa 0,0 l/m N 0,00 h 0 W/m 0,1 km/h (0 Bft)
19.12.2013 19:00 2,2 C 96 % 1013,7 hPa 0,0 l/m N 0,00 h 0 W/m 0,4 km/h (0 Bft)
19.12.2013 20:00 2,2 C 96 % 1014,0 hPa 0,0 l/m S-SW 0,00 h 0 W/m 2,0 km/h (1 Bft)
19.12.2013 21:00 2,2 C 97 % 1014,8 hPa 0,0 l/m S-SW 0,00 h 0 W/m 5,2 km/h (1 Bft)
19.12.2013 22:00 2,2 C 97 % 1015,6 hPa 0,0 l/m S-SW 0,00 h 0 W/m 2,8 km/h (1 Bft)
19.12.2013 23:00 2,3 C 97 % 1015,8 hPa 0,0 l/m N 0,00 h 0 W/m 1,1 km/h (0 Bft)
20.12.2013 00:00 1,9 C 97 % 1016,0 hPa 0,0 l/m N 0,00 h 0 W/m 0,0 km/h (0 Bft)
20.12.2013 01:00 1,6 C 98 % 1016,0 hPa 0,0 l/m N 0,00 h 0 W/m 0,5 km/h (0 Bft)
20.12.2013 02:00 1,4 C 98 % 1016,4 hPa 0,0 l/m N 0,00 h 0 W/m 1,1 km/h (0 Bft)
20.12.2013 03:00 1,4 C 98 % 1016,9 hPa 0,0 l/m N 0,00 h 0 W/m 0,4 km/h (0 Bft)
20.12.2013 04:00 1,7 C 98 % 1017,1 hPa 0,0 l/m S-SW 0,00 h 0 W/m 0,5 km/h (0 Bft)
20.12.2013 05:00 1,9 C 98 % 1017,8 hPa 0,0 l/m N 0,00 h 0 W/m 2,9 km/h (1 Bft)
20.12.2013 06:00 1,8 C 98 % 1018,6 hPa 0,0 l/m S-SW 0,00 h 0 W/m 2,5 km/h (1 Bft)
20.12.2013 07:00 1,3 C 98 % 1019,9 hPa 0,0 l/m N 0,00 h 0 W/m 1,6 km/h (1 Bft)
20.12.2013 08:00 1,5 C 98 % 1021,1 hPa 0,0 l/m N 0,00 h 7 W/m 1,5 km/h (1 Bft)
20.12.2013 09:00 1,8 C 99 % 1022,7 hPa 0,0 l/m N 0,00 h 13 W/m 2,3 km/h (1 Bft)
20.12.2013 10:00 2,4 C 99 % 1024,1 hPa 0,0 l/m S-SW 0,00 h 21 W/m 4,5 km/h (1 Bft)
20.12.2013 11:00 2,8 C 99 % 1025,3 hPa 0,4 l/m S-SW 0,00 h 21 W/m 3,1 km/h (1 Bft)
20.12.2013 12:00 3,1 C 99 % 1026,0 hPa 0,0 l/m S-SW 0,00 h 37 W/m 5,3 km/h (1 Bft)
20.12.2013 13:00 3,8 C 99 % 1026,9 hPa 0,0 l/m SW 0,00 h 28 W/m 10,7 km/h (2 Bft)
20.12.2013 14:00 3,7 C 99 % 1027,9 hPa 0,0 l/m SW 0,00 h 20 W/m 10,5 km/h (2 Bft)
20.12.2013 15:00 3,4 C 99 % 1029,4 hPa 0,0 l/m SW 0,00 h 16 W/m 4,5 km/h (1 Bft)
20.12.2013 16:00 3,3 C 99 % 1030,6 hPa 0,0 l/m SW 0,00 h 5 W/m 9,3 km/h (2 Bft)
20.12.2013 17:00 3,2 C 99 % 1031,5 hPa 0,0 l/m SW 0,00 h 0 W/m 9,9 km/h (2 Bft)
20.12.2013 18:00 3,1 C 99 % 1032,3 hPa 0,0 l/m SW 0,00 h 0 W/m 7,0 km/h (2 Bft)
20.12.2013 19:00 3,0 C 99 % 1033,0 hPa 0,0 l/m N 0,00 h 0 W/m 3,1 km/h (1 Bft)
20.12.2013 20:00 2,8 C 99 % 1033,6 hPa 0,0 l/m N 0,00 h 0 W/m 0,9 km/h (0 Bft)
20.12.2013 21:00 2,3 C 98 % 1033,4 hPa 0,0 l/m N 0,00 h 0 W/m 1,9 km/h (1 Bft)
20.12.2013 22:00 1,1 C 98 % 1033,1 hPa 0,0 l/m N 0,00 h 0 W/m 0,9 km/h (0 Bft)
20.12.2013 23:00 0,3 C 98 % 1033,2 hPa 0,0 l/m N 0,00 h 0 W/m 0,8 km/h (0 Bft)
21.12.2013 00:00 -0,5 C 98 % 1033,3 hPa 0,0 l/m SW 0,00 h 0 W/m 1,7 km/h (1 Bft)
21.12.2013 01:00 -0,7 C 98 % 1033,1 hPa 0,0 l/m SW 0,00 h 0 W/m 1,2 km/h (1 Bft)
21.12.2013 02:00 -0,9 C 98 % 1033,3 hPa 0,0 l/m N 0,00 h 0 W/m 0,8 km/h (0 Bft)
21.12.2013 03:00 -0,7 C 99 % 1033,6 hPa 0,0 l/m N 0,00 h 0 W/m 0,0 km/h (0 Bft)
21.12.2013 04:00 -0,5 C 99 % 1033,5 hPa 0,0 l/m N 0,00 h 0 W/m 0,5 km/h (0 Bft)
21.12.2013 05:00 -0,1 C 99 % 1033,7 hPa 0,0 l/m N 0,00 h 0 W/m 1,3 km/h (1 Bft)
21.12.2013 06:00 -0,1 C 99 % 1034,1 hPa 0,0 l/m N 0,00 h 0 W/m 0,8 km/h (0 Bft)
21.12.2013 07:00 -0,3 C 99 % 1034,3 hPa 0,0 l/m SW 0,00 h 0 W/m 3,3 km/h (1 Bft)
21.12.2013 08:00 -0,6 C 99 % 1033,9 hPa 0,0 l/m SW 0,00 h 10 W/m 6,1 km/h (2 Bft)
21.12.2013 09:00 -0,9 C 99 % 1034,3 hPa 0,0 l/m SW 0,00 h 31 W/m 4,1 km/h (1 Bft)
21.12.2013 10:00 -0,8 C 99 % 1034,4 hPa 0,0 l/m SW 0,00 h 44 W/m 4,7 km/h (1 Bft)
21.12.2013 11:00 -0,3 C 99 % 1033,8 hPa 0,0 l/m SW 0,00 h 65 W/m 10,6 km/h (2 Bft)
21.12.2013 12:00 -0,0 C 99 % 1032,8 hPa 0,0 l/m S-SW 0,00 h 67 W/m 12,0 km/h (2 Bft)
21.12.2013 13:00 0,3 C 99 % 1032,0 hPa 0,0 l/m SW 0,00 h 51 W/m 6,4 km/h (2 Bft)
21.12.2013 14:00 0,8 C 99 % 1031,4 hPa 0,0 l/m SW 0,00 h 48 W/m 6,9 km/h (2 Bft)
21.12.2013 15:00 0,7 C 99 % 1031,2 hPa 0,0 l/m S-SW 0,00 h 20 W/m 9,7 km/h (2 Bft)
21.12.2013 16:00 0,2 C 99 % 1030,8 hPa 0,0 l/m S-SW 0,00 h 6 W/m 10,9 km/h (2 Bft)
21.12.2013 17:00 -0,0 C 99 % 1030,7 hPa 0,0 l/m SW 0,00 h 0 W/m 7,5 km/h (2 Bft)
21.12.2013 18:00 -0,1 C 99 % 1030,6 hPa 0,0 l/m N 0,00 h 0 W/m 2,7 km/h (1 Bft)
21.12.2013 19:00 -0,4 C 99 % 1030,3 hPa 0,0 l/m SW 0,00 h 0 W/m 6,0 km/h (2 Bft)
21.12.2013 20:00 -0,7 C 99 % 1030,1 hPa 0,0 l/m SW 0,00 h 0 W/m 8,7 km/h (2 Bft)
21.12.2013 21:00 -0,7 C 99 % 1029,6 hPa 0,0 l/m SW 0,00 h 0 W/m 6,2 km/h (2 Bft)
21.12.2013 22:00 -0,8 C 99 % 1029,2 hPa 0,0 l/m SW 0,00 h 0 W/m 4,1 km/h (1 Bft)
21.12.2013 23:00 -0,9 C 99 % 1028,9 hPa 0,0 l/m SW 0,00 h 0 W/m 5,3 km/h (1 Bft)
22.12.2013 00:00 -0,9 C 99 % 1028,4 hPa 0,0 l/m S-SW 0,00 h 0 W/m 8,7 km/h (2 Bft)
22.12.2013 01:00 -0,8 C 99 % 1027,8 hPa 0,0 l/m S-SW 0,00 h 0 W/m 9,8 km/h (2 Bft)
22.12.2013 02:00 -0,8 C 100 % 1027,7 hPa 0,0 l/m S 0,00 h 0 W/m 6,0 km/h (2 Bft)
22.12.2013 03:00 -0,5 C 100 % 1027,3 hPa 0,0 l/m S-SW 0,00 h 0 W/m 5,5 km/h (1 Bft)
22.12.2013 04:00 -0,3 C 100 % 1026,9 hPa 0,0 l/m S-SW 0,00 h 0 W/m 7,6 km/h (2 Bft)
22.12.2013 05:00 0,0 C 100 % 1026,8 hPa 0,0 l/m S-SW 0,00 h 0 W/m 9,1 km/h (2 Bft)
22.12.2013 06:00 0,1 C 100 % 1026,6 hPa 0,0 l/m SW 0,00 h 0 W/m 7,9 km/h (2 Bft)
22.12.2013 07:00 0,1 C 100 % 1026,5 hPa 0,0 l/m SW 0,00 h 0 W/m 4,1 km/h (1 Bft)
22.12.2013 08:00 0,2 C 100 % 1026,7 hPa 0,0 l/m SW 0,00 h 6 W/m 2,9 km/h (1 Bft)
22.12.2013 09:00 0,5 C 100 % 1026,5 hPa 0,0 l/m S-SW 0,00 h 44 W/m 7,9 km/h (2 Bft)
22.12.2013 10:00 1,6 C 100 % 1026,4 hPa 0,0 l/m S-SW 0,33 h 128 W/m 10,2 km/h (2 Bft)
22.12.2013 11:00 4,2 C 100 % 1025,8 hPa 0,0 l/m SW 0,00 h 78 W/m 12,6 km/h (3 Bft)
22.12.2013 12:00 5,5 C 96 % 1025,0 hPa 0,0 l/m SW 0,25 h 143 W/m 10,5 km/h (2 Bft)
22.12.2013 13:00 6,6 C 90 % 1024,2 hPa 0,0 l/m SW 0,00 h 84 W/m 10,3 km/h (2 Bft)
22.12.2013 14:00 7,5 C 85 % 1023,7 hPa 0,0 l/m W-SW 0,00 h 60 W/m 15,8 km/h (3 Bft)
22.12.2013 15:00 7,7 C 83 % 1023,2 hPa 0,0 l/m W-SW 0,00 h 23 W/m 15,3 km/h (3 Bft)
22.12.2013 16:00 8,2 C 80 % 1023,2 hPa 0,0 l/m SW 0,00 h 6 W/m 19,2 km/h (3 Bft)
22.12.2013 17:00 7,7 C 82 % 1023,1 hPa 0,0 l/m SW 0,00 h 0 W/m 10,6 km/h (2 Bft)
22.12.2013 18:00 7,3 C 84 % 1023,5 hPa 0,0 l/m W-SW 0,00 h 0 W/m 10,1 km/h (2 Bft)
22.12.2013 19:00 7,5 C 83 % 1023,2 hPa 0,0 l/m W-SW 0,00 h 0 W/m 11,4 km/h (2 Bft)
22.12.2013 20:00 7,4 C 83 % 1023,1 hPa 0,0 l/m W-SW 0,00 h 0 W/m 11,3 km/h (2 Bft)
22.12.2013 21:00 5,9 C 87 % 1022,8 hPa 0,0 l/m W-SW 0,00 h 0 W/m 8,2 km/h (2 Bft)
22.12.2013 22:00 5,4 C 90 % 1022,4 hPa 0,0 l/m W-SW 0,00 h 0 W/m 7,1 km/h (2 Bft)
22.12.2013 23:00 5,0 C 92 % 1022,5 hPa 0,0 l/m W-SW 0,00 h 0 W/m 11,0 km/h (2 Bft)
Min-Datum _ 17.12.13 17.12.13 19.12.13 - - - - 16.12.13
_ Min-Zeit 07:40 13:55 06:05 - - - - 00:00
Minimum _ -6,1 C 78 % 1013,1 hPa - - - - 0,0 km/h (0 Bft)
Max-Datum _ 22.12.13 16.12.13 21.12.13 20.12.13 - 16.12.13 18.12.13 19.12.13
_ Max-Zeit 16:10 11:35 10:05 11:35 - 09:55 14:15 11:30
Maximum _ 8,2 C 100 % 1034,6 hPa 0,4 l/m - 0,08 h 330 W/m 27,4 km/h
W-SW (4 Bft)
Durchschnitt _ 0,0 C 95 % 1026,3 hPa #0,4 l/m S-SW #12:55 h 76 W/m 3,8 km/h (1 Bft)